Aviation Digital Data Service (ADDS)

Output produced by METARs form (1505 UTC 20 March 2019)
found at http://www.aviationweather.gov/metar/data/
 
METAR text: SABE 201300Z 15007KT 120V220 CAVOK 16/07 Q1023 NOSIG
Conditions at: SABE (AEROPARQUE(CIV/M, AR) observed 1300 UTC 20 March 2019
Temperature: 16.0°C (61°F)
Dewpoint: 7.0°C (45°F) [RH = 55%]
Pressure (altimeter): 30.21 inches Hg (1023.0 mb)
Winds: from the SSE (150 degrees) at 8 MPH (7 knots; 3.6 m/s)
Visibility: 6 or more miles (10+ km)
Ceiling: ceiling and visibility are OK
Clouds: unknown
Weather: no significant weather observed at this time

METAR text: SABE 201200Z 17006KT 080V220 CAVOK 15/07 Q1023 NOSIG
Conditions at: SABE (AEROPARQUE(CIV/M, AR) observed 1200 UTC 20 March 2019
Temperature: 15.0°C (59°F)
Dewpoint: 7.0°C (45°F) [RH = 59%]
Pressure (altimeter): 30.21 inches Hg (1023.0 mb)
Winds: from the S (170 degrees) at 7 MPH (6 knots; 3.1 m/s)
Visibility: 6 or more miles (10+ km)
Ceiling: ceiling and visibility are OK
Clouds: unknown
Weather: no significant weather observed at this time

METAR text: SABE 201100Z 17006KT 120V230 CAVOK 14/07 Q1023 NOSIG
Conditions at: SABE (AEROPARQUE(CIV/M, AR) observed 1100 UTC 20 March 2019
Temperature: 14.0°C (57°F)
Dewpoint: 7.0°C (45°F) [RH = 63%]
Pressure (altimeter): 30.21 inches Hg (1023.0 mb)
Winds: from the S (170 degrees) at 7 MPH (6 knots; 3.1 m/s)
Visibility: 6 or more miles (10+ km)
Ceiling: ceiling and visibility are OK
Clouds: unknown
Weather: no significant weather observed at this time

METAR text: SABE 201000Z 17004KT 130V220 CAVOK 14/07 Q1022 NOSIG
Conditions at: SABE (AEROPARQUE(CIV/M, AR) observed 1000 UTC 20 March 2019
Temperature: 14.0°C (57°F)
Dewpoint: 7.0°C (45°F) [RH = 63%]
Pressure (altimeter): 30.18 inches Hg (1022.0 mb)
Winds: from the S (170 degrees) at 5 MPH (4 knots; 2.1 m/s)
Visibility: 6 or more miles (10+ km)
Ceiling: ceiling and visibility are OK
Clouds: unknown
Weather: no significant weather observed at this time

METAR text: SABE 200900Z 18003KT 140V250 CAVOK 14/08 Q1022 NOSIG
Conditions at: SABE (AEROPARQUE(CIV/M, AR) observed 0900 UTC 20 March 2019
Temperature: 14.0°C (57°F)
Dewpoint: 8.0°C (46°F) [RH = 67%]
Pressure (altimeter): 30.18 inches Hg (1022.0 mb)
Winds: from the S (180 degrees) at 3 MPH (3 knots; 1.5 m/s)
Visibility: 6 or more miles (10+ km)
Ceiling: ceiling and visibility are OK
Clouds: unknown
Weather: no significant weather observed at this time

METAR text: SABE 200800Z 17004KT 140V290 CAVOK 14/08 Q1022 NOSIG
Conditions at: SABE (AEROPARQUE(CIV/M, AR) observed 0800 UTC 20 March 2019
Temperature: 14.0°C (57°F)
Dewpoint: 8.0°C (46°F) [RH = 67%]
Pressure (altimeter): 30.18 inches Hg (1022.0 mb)
Winds: from the S (170 degrees) at 5 MPH (4 knots; 2.1 m/s)
Visibility: 6 or more miles (10+ km)
Ceiling: ceiling and visibility are OK
Clouds: unknown
Weather: no significant weather observed at this time

METAR text: SABE 200700Z 17004KT 120V220 CAVOK 14/08 Q1022 NOSIG
Conditions at: SABE (AEROPARQUE(CIV/M, AR) observed 0700 UTC 20 March 2019
Temperature: 14.0°C (57°F)
Dewpoint: 8.0°C (46°F) [RH = 67%]
Pressure (altimeter): 30.18 inches Hg (1022.0 mb)
Winds: from the S (170 degrees) at 5 MPH (4 knots; 2.1 m/s)
Visibility: 6 or more miles (10+ km)
Ceiling: ceiling and visibility are OK
Clouds: unknown
Weather: no significant weather observed at this time

METAR text: SABE 200600Z 17007KT CAVOK 15/07 Q1022 NOSIG
Conditions at: SABE (AEROPARQUE(CIV/M, AR) observed 0600 UTC 20 March 2019
Temperature: 15.0°C (59°F)
Dewpoint: 7.0°C (45°F) [RH = 59%]
Pressure (altimeter): 30.18 inches Hg (1022.0 mb)
Winds: from the S (170 degrees) at 8 MPH (7 knots; 3.6 m/s)
Visibility: 6 or more miles (10+ km)
Ceiling: ceiling and visibility are OK
Clouds: unknown
Weather: no significant weather observed at this time

METAR text: SABE 200500Z 16006KT 130V210 9999 FEW047 16/08 Q1021 NOSIG
Conditions at: SABE (AEROPARQUE(CIV/M, AR) observed 0500 UTC 20 March 2019
Temperature: 16.0°C (61°F)
Dewpoint: 8.0°C (46°F) [RH = 59%]
Pressure (altimeter): 30.15 inches Hg (1021.0 mb)
Winds: from the SSE (160 degrees) at 7 MPH (6 knots; 3.1 m/s)
Visibility: 6 or more miles (10+ km)
Ceiling: at least 12,000 feet AGL
Clouds: few clouds at 4700 feet AGL
Weather: no significant weather observed at this time

METAR text: SABE 200400Z 16006KT 130V190 9999 FEW041 BKN200 17/07 Q1021 NOSIG
Conditions at: SABE (AEROPARQUE(CIV/M, AR) observed 0400 UTC 20 March 2019
Temperature: 17.0°C (63°F)
Dewpoint: 7.0°C (45°F) [RH = 52%]
Pressure (altimeter): 30.15 inches Hg (1021.0 mb)
Winds: from the SSE (160 degrees) at 7 MPH (6 knots; 3.1 m/s)
Visibility: 6 or more miles (10+ km)
Ceiling: 20000 feet AGL
Clouds: few clouds at 4100 feet AGL
broken clouds at 20000 feet AGL
Weather: no significant weather observed at this time

METAR text: SABE 200300Z 16007KT 110V210 9999 SCT039 BKN100 16/09 Q1020 NOSIG
Conditions at: SABE (AEROPARQUE(CIV/M, AR) observed 0300 UTC 20 March 2019
Temperature: 16.0°C (61°F)
Dewpoint: 9.0°C (48°F) [RH = 63%]
Pressure (altimeter): 30.12 inches Hg (1020.0 mb)
Winds: from the SSE (160 degrees) at 8 MPH (7 knots; 3.6 m/s)
Visibility: 6 or more miles (10+ km)
Ceiling: 10000 feet AGL
Clouds: scattered clouds at 3900 feet AGL
broken clouds at 10000 feet AGL
Weather: no significant weather observed at this time

METAR text: SABE 200200Z 17006KT 140V210 9999 FEW031 BKN100 17/10 Q1020 NOSIG
Conditions at: SABE (AEROPARQUE(CIV/M, AR) observed 0200 UTC 20 March 2019
Temperature: 17.0°C (63°F)
Dewpoint: 10.0°C (50°F) [RH = 63%]
Pressure (altimeter): 30.12 inches Hg (1020.0 mb)
Winds: from the S (170 degrees) at 7 MPH (6 knots; 3.1 m/s)
Visibility: 6 or more miles (10+ km)
Ceiling: 10000 feet AGL
Clouds: few clouds at 3100 feet AGL
broken clouds at 10000 feet AGL
Weather: no significant weather observed at this time

METAR text: SABE 200100Z 17005KT 150V250 9999 SCT031 16/10 Q1020 NOSIG
Conditions at: SABE (AEROPARQUE(CIV/M, AR) observed 0100 UTC 20 March 2019
Temperature: 16.0°C (61°F)
Dewpoint: 10.0°C (50°F) [RH = 68%]
Pressure (altimeter): 30.12 inches Hg (1020.0 mb)
Winds: from the S (170 degrees) at 6 MPH (5 knots; 2.6 m/s)
Visibility: 6 or more miles (10+ km)
Ceiling: at least 12,000 feet AGL
Clouds: scattered clouds at 3100 feet AGL
Weather: no significant weather observed at this time

METAR text: SABE 200000Z 17007KT 130V210 9999 FEW030 16/11 Q1019 NOSIG
Conditions at: SABE (AEROPARQUE(CIV/M, AR) observed 0000 UTC 20 March 2019
Temperature: 16.0°C (61°F)
Dewpoint: 11.0°C (52°F) [RH = 72%]
Pressure (altimeter): 30.09 inches Hg (1019.0 mb)
Winds: from the S (170 degrees) at 8 MPH (7 knots; 3.6 m/s)
Visibility: 6 or more miles (10+ km)
Ceiling: at least 12,000 feet AGL
Clouds: few clouds at 3000 feet AGL
Weather: no significant weather observed at this time

METAR text: SABE 192300Z 17009KT 120V210 9999 FEW025 SCT100 17/11 Q1019 NOSIG
Conditions at: SABE (AEROPARQUE(CIV/M, AR) observed 2300 UTC 19 March 2019
Temperature: 17.0°C (63°F)
Dewpoint: 11.0°C (52°F) [RH = 68%]
Pressure (altimeter): 30.09 inches Hg (1019.0 mb)
Winds: from the S (170 degrees) at 10 MPH (9 knots; 4.6 m/s)
Visibility: 6 or more miles (10+ km)
Ceiling: at least 12,000 feet AGL
Clouds: few clouds at 2500 feet AGL
scattered clouds at 10000 feet AGL
Weather: no significant weather observed at this time

METAR text: SABE 192200Z 19009KT 080V230 9999 FEW025 SCT100 17/11 Q1018 NOSIG
Conditions at: SABE (AEROPARQUE(CIV/M, AR) observed 2200 UTC 19 March 2019
Temperature: 17.0°C (63°F)
Dewpoint: 11.0°C (52°F) [RH = 68%]
Pressure (altimeter): 30.06 inches Hg (1018.0 mb)
Winds: from the S (190 degrees) at 10 MPH (9 knots; 4.6 m/s)
Visibility: 6 or more miles (10+ km)
Ceiling: at least 12,000 feet AGL
Clouds: few clouds at 2500 feet AGL
scattered clouds at 10000 feet AGL
Weather: no significant weather observed at this time

METAR text: SABE 192100Z 16006KT 140V220 CAVOK 18/10 Q1017 NOSIG
Conditions at: SABE (AEROPARQUE(CIV/M, AR) observed 2100 UTC 19 March 2019
Temperature: 18.0°C (64°F)
Dewpoint: 10.0°C (50°F) [RH = 59%]
Pressure (altimeter): 30.03 inches Hg (1017.0 mb)
Winds: from the SSE (160 degrees) at 7 MPH (6 knots; 3.1 m/s)
Visibility: 6 or more miles (10+ km)
Ceiling: ceiling and visibility are OK
Clouds: unknown
Weather: no significant weather observed at this time

METAR text: SABE 192000Z 14008KT 9999 SCT030 OVC100 17/11 Q1017 NOSIG
Conditions at: SABE (AEROPARQUE(CIV/M, AR) observed 2000 UTC 19 March 2019
Temperature: 17.0°C (63°F)
Dewpoint: 11.0°C (52°F) [RH = 68%]
Pressure (altimeter): 30.03 inches Hg (1017.0 mb)
Winds: from the SE (140 degrees) at 9 MPH (8 knots; 4.1 m/s)
Visibility: 6 or more miles (10+ km)
Ceiling: 10000 feet AGL
Clouds: scattered clouds at 3000 feet AGL
overcast cloud deck at 10000 feet AGL
Weather: no significant weather observed at this time

METAR text: SABE 191922Z 16006KT 9999 SCT025 OVC080 18/11 Q1016 NOSIG
Conditions at: SABE (AEROPARQUE(CIV/M, AR) observed 1922 UTC 19 March 2019
Temperature: 18.0°C (64°F)
Dewpoint: 11.0°C (52°F) [RH = 64%]
Pressure (altimeter): 30.00 inches Hg (1016.0 mb)
Winds: from the SSE (160 degrees) at 7 MPH (6 knots; 3.1 m/s)
Visibility: 6 or more miles (10+ km)
Ceiling: 8000 feet AGL
Clouds: scattered clouds at 2500 feet AGL
overcast cloud deck at 8000 feet AGL
Weather: no significant weather observed at this time

METAR text: SABE 191900Z 16006KT 7000 -RA SCT025 OVC070 17/11 Q1017 NOSIG
Conditions at: SABE (AEROPARQUE(CIV/M, AR) observed 1900 UTC 19 March 2019
Temperature: 17.0°C (63°F)
Dewpoint: 11.0°C (52°F) [RH = 68%]
Pressure (altimeter): 30.03 inches Hg (1017.0 mb)
Winds: from the SSE (160 degrees) at 7 MPH (6 knots; 3.1 m/s)
Visibility: 4 miles ( 7 km)
Ceiling: 7000 feet AGL
Clouds: scattered clouds at 2500 feet AGL
overcast cloud deck at 7000 feet AGL
Weather: -RA  (light rain)

METAR text: SABE 191800Z 16006KT 7000 -RA SCT025 OVC080 17/09 Q1017 BECMG 18015G25KT 5000 RA BKN030 OVC100
Conditions at: SABE (AEROPARQUE(CIV/M, AR) observed 1800 UTC 19 March 2019
Temperature: 17.0°C (63°F)
Dewpoint: 9.0°C (48°F) [RH = 59%]
Pressure (altimeter): 30.03 inches Hg (1017.0 mb)
Winds: from the SSE (160 degrees) at 7 MPH (6 knots; 3.1 m/s)
Visibility: 4 miles ( 7 km)
Ceiling: 8000 feet AGL
Clouds: scattered clouds at 2500 feet AGL
overcast cloud deck at 8000 feet AGL
Weather: -RA  (light rain)

METAR text: SABE 191751Z 15011KT 7000 -RA SCT025 OVC080 18/09 Q1018 NOSIG
Conditions at: SABE (AEROPARQUE(CIV/M, AR) observed 1751 UTC 19 March 2019
Temperature: 18.0°C (64°F)
Dewpoint: 9.0°C (48°F) [RH = 56%]
Pressure (altimeter): 30.06 inches Hg (1018.0 mb)
Winds: from the SSE (150 degrees) at 13 MPH (11 knots; 5.7 m/s)
Visibility: 4 miles ( 7 km)
Ceiling: 8000 feet AGL
Clouds: scattered clouds at 2500 feet AGL
overcast cloud deck at 8000 feet AGL
Weather: -RA  (light rain)

METAR text: SABE 191700Z 20008G19KT 9999 SCT030 OVC100 17/10 Q1018 BECMG 18015G25KT 5000 RA BKN030 OVC100
Conditions at: SABE (AEROPARQUE(CIV/M, AR) observed 1700 UTC 19 March 2019
Temperature: 17.0°C (63°F)
Dewpoint: 10.0°C (50°F) [RH = 63%]
Pressure (altimeter): 30.06 inches Hg (1018.0 mb)
Winds: from the SSW (200 degrees) at 9 MPH (8 knots; 4.1 m/s)
gusting to 22 MPH (19 knots; 9.8 m/s)
Visibility: 6 or more miles (10+ km)
Ceiling: 10000 feet AGL
Clouds: scattered clouds at 3000 feet AGL
overcast cloud deck at 10000 feet AGL
Weather: no significant weather observed at this time

METAR text: SABE 191600Z 20007G18KT 9999 FEW025 OVC100 18/09 Q1019 BECMG 16015G25KT 5000 RA BKN030 OVC100
Conditions at: SABE (AEROPARQUE(CIV/M, AR) observed 1600 UTC 19 March 2019
Temperature: 18.0°C (64°F)
Dewpoint: 9.0°C (48°F) [RH = 56%]
Pressure (altimeter): 30.09 inches Hg (1019.0 mb)
Winds: from the SSW (200 degrees) at 8 MPH (7 knots; 3.6 m/s)
gusting to 21 MPH (18 knots; 9.3 m/s)
Visibility: 6 or more miles (10+ km)
Ceiling: 10000 feet AGL
Clouds: few clouds at 2500 feet AGL
overcast cloud deck at 10000 feet AGL
Weather: no significant weather observed at this time

METAR text: SABE 191500Z 16007KT CAVOK 20/08 Q1017 BECMG 16015G25KT
Conditions at: SABE (AEROPARQUE(CIV/M, AR) observed 1500 UTC 19 March 2019
Temperature: 20.0°C (68°F)
Dewpoint: 8.0°C (46°F) [RH = 46%]
Pressure (altimeter): 30.03 inches Hg (1017.0 mb)
Winds: from the SSE (160 degrees) at 8 MPH (7 knots; 3.6 m/s)
Visibility: 6 or more miles (10+ km)
Ceiling: ceiling and visibility are OK
Clouds: unknown
Weather: no significant weather observed at this time

METAR text: SABE 191400Z 15010KT CAVOK 19/10 Q1017 BECMG 16015G25KT
Conditions at: SABE (AEROPARQUE(CIV/M, AR) observed 1400 UTC 19 March 2019
Temperature: 19.0°C (66°F)
Dewpoint: 10.0°C (50°F) [RH = 56%]
Pressure (altimeter): 30.03 inches Hg (1017.0 mb)
Winds: from the SSE (150 degrees) at 12 MPH (10 knots; 5.1 m/s)
Visibility: 6 or more miles (10+ km)
Ceiling: ceiling and visibility are OK
Clouds: unknown
Weather: no significant weather observed at this time

METAR text: SABE 191300Z 15011KT CAVOK 18/11 Q1016 NOSIG
Conditions at: SABE (AEROPARQUE(CIV/M, AR) observed 1300 UTC 19 March 2019
Temperature: 18.0°C (64°F)
Dewpoint: 11.0°C (52°F) [RH = 64%]
Pressure (altimeter): 30.00 inches Hg (1016.0 mb)
Winds: from the SSE (150 degrees) at 13 MPH (11 knots; 5.7 m/s)
Visibility: 6 or more miles (10+ km)
Ceiling: ceiling and visibility are OK
Clouds: unknown
Weather: no significant weather observed at this time

METAR text: SABE 191200Z 15010KT CAVOK 18/11 Q1015 NOSIG
Conditions at: SABE (AEROPARQUE(CIV/M, AR) observed 1200 UTC 19 March 2019
Temperature: 18.0°C (64°F)
Dewpoint: 11.0°C (52°F) [RH = 64%]
Pressure (altimeter): 29.97 inches Hg (1015.0 mb)
Winds: from the SSE (150 degrees) at 12 MPH (10 knots; 5.1 m/s)
Visibility: 6 or more miles (10+ km)
Ceiling: ceiling and visibility are OK
Clouds: unknown
Weather: no significant weather observed at this time

METAR text: SABE 191100Z 15011KT CAVOK 18/12 Q1014 NOSIG
Conditions at: SABE (AEROPARQUE(CIV/M, AR) observed 1100 UTC 19 March 2019
Temperature: 18.0°C (64°F)
Dewpoint: 12.0°C (54°F) [RH = 68%]
Pressure (altimeter): 29.94 inches Hg (1014.0 mb)
Winds: from the SSE (150 degrees) at 13 MPH (11 knots; 5.7 m/s)
Visibility: 6 or more miles (10+ km)
Ceiling: ceiling and visibility are OK
Clouds: unknown
Weather: no significant weather observed at this time

METAR text: SABE 191000Z 15010KT CAVOK 17/12 Q1013 NOSIG
Conditions at: SABE (AEROPARQUE(CIV/M, AR) observed 1000 UTC 19 March 2019
Temperature: 17.0°C (63°F)
Dewpoint: 12.0°C (54°F) [RH = 72%]
Pressure (altimeter): 29.91 inches Hg (1013.0 mb)
Winds: from the SSE (150 degrees) at 12 MPH (10 knots; 5.1 m/s)
Visibility: 6 or more miles (10+ km)
Ceiling: ceiling and visibility are OK
Clouds: unknown
Weather: no significant weather observed at this time

METAR text: SABE 190900Z 15009KT 9999 BKN038 17/12 Q1013 NOSIG
Conditions at: SABE (AEROPARQUE(CIV/M, AR) observed 0900 UTC 19 March 2019
Temperature: 17.0°C (63°F)
Dewpoint: 12.0°C (54°F) [RH = 72%]
Pressure (altimeter): 29.91 inches Hg (1013.0 mb)
Winds: from the SSE (150 degrees) at 10 MPH (9 knots; 4.6 m/s)
Visibility: 6 or more miles (10+ km)
Ceiling: 3800 feet AGL
Clouds: broken clouds at 3800 feet AGL
Weather: no significant weather observed at this time

METAR text: SABE 190800Z 16009KT 120V200 CAVOK 17/12 Q1013 NOSIG
Conditions at: SABE (AEROPARQUE(CIV/M, AR) observed 0800 UTC 19 March 2019
Temperature: 17.0°C (63°F)
Dewpoint: 12.0°C (54°F) [RH = 72%]
Pressure (altimeter): 29.91 inches Hg (1013.0 mb)
Winds: from the SSE (160 degrees) at 10 MPH (9 knots; 4.6 m/s)
Visibility: 6 or more miles (10+ km)
Ceiling: ceiling and visibility are OK
Clouds: unknown
Weather: no significant weather observed at this time

METAR text: SABE 190700Z 16006KT 110V230 CAVOK 17/13 Q1012 NOSIG
Conditions at: SABE (AEROPARQUE(CIV/M, AR) observed 0700 UTC 19 March 2019
Temperature: 17.0°C (63°F)
Dewpoint: 13.0°C (55°F) [RH = 77%]
Pressure (altimeter): 29.88 inches Hg (1012.0 mb)
Winds: from the SSE (160 degrees) at 7 MPH (6 knots; 3.1 m/s)
Visibility: 6 or more miles (10+ km)
Ceiling: ceiling and visibility are OK
Clouds: unknown
Weather: no significant weather observed at this time

METAR text: SABE 190600Z 17008KT 120V200 CAVOK 17/12 Q1012 NOSIG
Conditions at: SABE (AEROPARQUE(CIV/M, AR) observed 0600 UTC 19 March 2019
Temperature: 17.0°C (63°F)
Dewpoint: 12.0°C (54°F) [RH = 72%]
Pressure (altimeter): 29.88 inches Hg (1012.0 mb)
Winds: from the S (170 degrees) at 9 MPH (8 knots; 4.1 m/s)
Visibility: 6 or more miles (10+ km)
Ceiling: ceiling and visibility are OK
Clouds: unknown
Weather: no significant weather observed at this time

METAR text: SABE 190500Z 17007KT 130V210 CAVOK 19/12 Q1011 NOSIG
Conditions at: SABE (AEROPARQUE(CIV/M, AR) observed 0500 UTC 19 March 2019
Temperature: 19.0°C (66°F)
Dewpoint: 12.0°C (54°F) [RH = 64%]
Pressure (altimeter): 29.85 inches Hg (1011.0 mb)
Winds: from the S (170 degrees) at 8 MPH (7 knots; 3.6 m/s)
Visibility: 6 or more miles (10+ km)
Ceiling: ceiling and visibility are OK
Clouds: unknown
Weather: no significant weather observed at this time

METAR text: SABE 190400Z 15010KT 120V200 CAVOK 20/15 Q1010 NOSIG
Conditions at: SABE (AEROPARQUE(CIV/M, AR) observed 0400 UTC 19 March 2019
Temperature: 20.0°C (68°F)
Dewpoint: 15.0°C (59°F) [RH = 73%]
Pressure (altimeter): 29.82 inches Hg (1010.0 mb)
Winds: from the SSE (150 degrees) at 12 MPH (10 knots; 5.1 m/s)
Visibility: 6 or more miles (10+ km)
Ceiling: ceiling and visibility are OK
Clouds: unknown
Weather: no significant weather observed at this time

Forecast for: SABE (AEROPARQUE(CIV/M, AR)
Text: TAF SABE 201100Z 2012/2112 19010KT CAVOK TX20/2018Z TN13/2110Z
Forecast period: 1200 to 2200 UTC 20 March 2019
Forecast type: FROM: standard forecast or significant change
Winds: from the S (190 degrees) at 12 MPH (10 knots; 5.1 m/s)
Visibility: 6 or more miles 10+ km)
Ceiling: unknown
Clouds: missing
Weather: no significant weather forecast for this period
Text: PROB30
Forecast period: 1600 to 2100 UTC 20 March 2019
Forecast type: TEMPORARY: The following changes expected for less than half the time period
Winds: from the S (190 degrees) at 17 MPH (15 knots; 7.7 m/s)
Visibility: 6 or more miles 10+ km)
Ceiling: at least 12,000 feet AGL
Clouds: scattered clouds at 3000 feet AGL
Weather: no significant weather forecast for this period
Text: TEMPO 2016/2021 19015KT 9999 SCT030
Forecast period: 2200 UTC 20 March 2019 to 0600 UTC 21 March 2019
Forecast type: BECOMING: Conditions expected to become as follows by 0100 UTC 21 March 2019
Winds: from the SSE (160 degrees) at 12 MPH (10 knots; 5.1 m/s)
Visibility: 6 or more miles 10+ km)
Ceiling: unknown
Clouds: missing
Weather: NSW  (no significant weather)
Text: BECMG 2022/2101 16010KT CAVOK
Forecast period: 0600 to 1200 UTC 21 March 2019
Forecast type: BECOMING: Conditions expected to become as follows by 0900 UTC 21 March 2019
Winds: from the SSE (160 degrees) at 12 MPH (10 knots; 5.1 m/s)
Visibility: 6 or more miles 10+ km)
Ceiling: at least 12,000 feet AGL
Clouds: few clouds at 3000 feet AGL
Weather: NSW  (no significant weather)